Time;durP1;ratioP1;P1;durP2;ratioP2;P2;SDS_P1;SDS_P2;PMS_P1;PMS_P2;Temp;Humidity;BMP_temperature;BMP_pressure;BME280_temperature;BME280_humidity;BME280_pressure;Samples;Min_cycle;Max_cycle;Signal;HPM_P1;HPM_P2
2022/04/05 00:01:14;;;;;;;20.77;16.45;;;4.90;1.00;;;;;;4974452;28;20491;-92
2022/04/05 00:03:40;;;;;;;24.80;17.73;;;4.90;1.00;;;;;;4956755;28;20034;-92
2022/04/05 00:06:05;;;;;;;24.23;17.30;;;4.80;1.00;;;;;;4956145;28;20038;-92
2022/04/05 00:08:31;;;;;;;23.23;17.88;;;5.00;1.00;;;;;;4956490;28;20031;-93
2022/04/05 00:10:57;;;;;;;24.77;19.23;;;5.00;1.00;;;;;;4973208;28;20499;-93
2022/04/05 00:13:22;;;;;;;26.23;19.08;;;4.90;1.00;;;;;;4973634;28;20057;-93
2022/04/05 00:15:48;;;;;;;25.55;18.67;;;4.90;1.00;;;;;;4974291;28;20291;-93
2022/04/05 00:18:14;;;;;;;27.60;19.80;;;5.10;1.00;;;;;;4956499;28;20547;-92
2022/04/05 00:20:40;;;;;;;27.80;19.25;;;4.90;1.00;;;;;;4973164;28;20043;-93
2022/04/05 00:23:05;;;;;;;23.75;18.83;;;5.20;1.00;;;;;;4973954;28;20106;-93
2022/04/05 00:25:31;;;;;;;24.05;19.33;;;4.80;1.00;;;;;;4974252;28;20514;-93
2022/04/05 00:27:57;;;;;;;25.67;18.90;;;4.70;1.00;;;;;;4972414;28;20026;-92
2022/04/05 00:30:23;;;;;;;23.73;18.35;;;4.50;1.00;;;;;;4956908;28;20089;-92
2022/04/05 00:32:49;;;;;;;24.90;18.38;;;4.50;1.00;;;;;;4973667;28;20027;-93
2022/04/05 00:35:15;;;;;;;23.58;17.88;;;4.70;1.00;;;;;;4973462;28;20086;-92
2022/04/05 00:37:40;;;;;;;21.73;16.35;;;4.30;1.00;;;;;;4973157;28;20102;-92
2022/04/05 00:40:07;;;;;;;23.23;17.27;;;4.20;1.00;;;;;;4956673;28;20027;-92
2022/04/05 00:42:34;;;;;;;21.17;17.25;;;4.10;1.00;;;;;;4973784;28;20545;-93
2022/04/05 00:45:00;;;;;;;20.92;16.25;;;4.30;1.00;;;;;;4973323;28;20031;-92
2022/04/05 00:47:26;;;;;;;22.10;16.15;;;4.50;1.00;;;;;;4973316;28;20031;-92
2022/04/05 00:49:53;;;;;;;20.40;16.42;;;4.20;1.00;;;;;;4973467;28;20074;-92
2022/04/05 00:52:21;;;;;;;21.85;15.77;;;4.20;1.00;;;;;;4973886;28;20050;-92
2022/04/05 00:54:49;;;;;;;20.83;16.10;;;4.10;1.00;;;;;;4973257;28;20058;-92
2022/04/05 00:57:18;;;;;;;20.83;15.48;;;4.20;1.00;;;;;;4956398;28;20039;-83
2022/04/05 00:59:49;;;;;;;20.42;15.80;;;3.90;1.00;;;;;;4954598;28;20442;-83
2022/04/05 01:02:17;;;;;;;25.13;17.02;;;3.80;1.00;;;;;;4972699;28;20153;-83
2022/04/05 01:04:45;;;;;;;25.63;17.33;;;3.50;1.00;;;;;;4971749;28;20026;-82
2022/04/05 01:07:17;;;;;;;23.23;16.55;;;3.30;1.00;;;;;;4972746;28;20030;-83
2022/04/05 01:09:43;;;;;;;22.48;15.98;;;3.40;1.00;;;;;;4972242;28;20034;-83
2022/04/05 01:12:10;;;;;;;20.73;16.45;;;3.70;1.00;;;;;;4971709;28;20503;-83
2022/04/05 01:14:38;;;;;;;21.25;16.15;;;3.90;1.00;;;;;;4971933;28;20046;-83
2022/04/05 01:17:05;;;;;;;28.48;18.25;;;3.70;1.00;;;;;;4971678;28;20027;-83
2022/04/05 01:19:32;;;;;;;24.25;18.35;;;3.80;1.00;;;;;;4971861;28;20582;-84
2022/04/05 01:21:58;;;;;;;24.13;18.05;;;4.00;1.00;;;;;;4970319;28;20031;-83
2022/04/05 01:24:24;;;;;;;24.17;18.27;;;4.10;1.00;;;;;;4972109;28;20058;-83
2022/04/05 01:26:56;;;;;;;24.05;17.73;;;4.20;1.00;;;;;;4972061;28;20424;-83
2022/04/05 01:29:24;;;;;;;23.38;17.88;;;4.20;1.00;;;;;;4971632;28;20042;-83
2022/04/05 01:31:52;;;;;;;25.70;18.92;;;4.10;1.00;;;;;;4968827;28;20058;-83
2022/04/05 01:34:21;;;;;;;22.55;17.38;;;4.10;1.00;;;;;;4972777;28;20114;-83
2022/04/05 01:36:53;;;;;;;26.17;17.65;;;3.90;1.00;;;;;;4971817;28;20412;-83
2022/04/05 01:39:29;;;;;;;26.45;17.45;;;4.20;1.00;;;;;;4971568;28;20035;-83
2022/04/05 01:42:00;;;;;;;21.98;17.40;;;4.00;1.00;;;;;;4971369;28;20019;-83
2022/04/05 01:44:28;;;;;;;21.40;15.13;;;4.00;1.00;;;;;;4971763;28;20093;-83
2022/04/05 01:46:53;;;;;;;22.20;16.48;;;4.00;1.00;;;;;;4972920;28;20122;-83
2022/04/05 01:49:20;;;;;;;20.50;15.20;;;3.70;1.00;;;;;;4975774;28;20088;-83
2022/04/05 01:51:46;;;;;;;20.65;15.48;;;3.80;1.00;;;;;;4975054;28;20019;-83
2022/04/05 01:54:15;;;;;;;20.33;15.20;;;3.70;1.00;;;;;;4975239;28;20419;-83
2022/04/05 01:56:43;;;;;;;21.20;15.68;;;3.60;1.00;;;;;;4975139;28;20026;-83
2022/04/05 01:59:10;;;;;;;21.13;16.20;;;3.60;1.00;;;;;;4974986;28;20034;-83
2022/04/05 02:01:36;;;;;;;20.75;15.35;;;3.90;1.00;;;;;;4974848;28;20046;-83
2022/04/05 02:04:02;;;;;;;21.88;16.60;;;3.80;1.00;;;;;;4975478;28;20460;-83
2022/04/05 02:06:28;;;;;;;21.98;16.05;;;3.90;1.00;;;;;;4974973;28;20033;-83
2022/04/05 02:08:54;;;;;;;22.98;16.67;;;3.90;1.00;;;;;;4974245;28;20145;-83
2022/04/05 02:11:19;;;;;;;20.92;16.00;;;3.90;1.00;;;;;;4973966;28;20023;-84
2022/04/05 02:13:45;;;;;;;20.25;16.17;;;3.90;1.00;;;;;;4973800;28;20035;-84
2022/04/05 02:16:11;;;;;;;20.95;16.30;;;4.20;1.00;;;;;;4957611;28;20038;-84
2022/04/05 02:18:37;;;;;;;23.23;16.15;;;4.10;1.00;;;;;;4974256;28;20118;-84
2022/04/05 02:21:03;;;;;;;22.65;17.65;;;4.10;1.00;;;;;;4974395;28;20038;-84
2022/04/05 02:23:29;;;;;;;23.15;17.17;;;4.10;1.00;;;;;;4974745;28;20038;-84
2022/04/05 02:25:55;;;;;;;23.85;17.48;;;4.00;1.00;;;;;;4974331;28;20026;-84
2022/04/05 02:28:20;;;;;;;24.30;17.33;;;4.00;1.00;;;;;;4974826;28;20364;-84
2022/04/05 02:30:46;;;;;;;23.50;17.70;;;3.80;1.00;;;;;;4974538;28;20472;-84
2022/04/05 02:33:12;;;;;;;23.20;17.67;;;4.00;1.00;;;;;;4974257;28;20035;-84
2022/04/05 02:35:38;;;;;;;21.73;16.02;;;3.90;1.00;;;;;;4974439;28;20030;-84
2022/04/05 02:38:04;;;;;;;22.08;17.00;;;3.90;1.00;;;;;;4974137;28;20043;-84
2022/04/05 02:40:30;;;;;;;23.27;17.70;;;4.10;1.00;;;;;;4974558;28;20027;-84
2022/04/05 02:42:56;;;;;;;23.17;17.00;;;4.20;1.00;;;;;;4972846;28;20480;-84
2022/04/05 02:45:22;;;;;;;22.67;16.58;;;4.00;1.00;;;;;;4973479;28;20089;-83
2022/04/05 02:47:48;;;;;;;20.67;15.07;;;4.00;1.00;;;;;;4974317;28;20030;-84
2022/04/05 02:50:17;;;;;;;19.15;14.05;;;3.90;1.00;;;;;;4974110;28;20035;-84
2022/04/05 02:52:45;;;;;;;21.30;14.38;;;3.80;1.00;;;;;;4974446;28;20498;-84
2022/04/05 02:55:11;;;;;;;17.90;13.82;;;3.80;1.00;;;;;;4974687;28;20520;-84
2022/04/05 02:57:38;;;;;;;19.58;14.90;;;3.60;1.00;;;;;;4973601;28;20039;-84
2022/04/05 03:00:07;;;;;;;21.88;15.27;;;3.60;1.00;;;;;;4973340;28;20019;-84
2022/04/05 03:02:34;;;;;;;20.38;15.57;;;3.70;1.00;;;;;;4973589;28;20102;-84
2022/04/05 03:05:01;;;;;;;22.10;15.68;;;3.60;1.00;;;;;;4973823;28;20050;-84
2022/04/05 03:07:27;;;;;;;28.38;17.13;;;3.60;1.00;;;;;;4973823;28;20035;-84
2022/04/05 03:09:53;;;;;;;22.65;16.67;;;3.30;1.00;;;;;;4974036;28;20130;-84
2022/04/05 03:12:18;;;;;;;20.27;16.42;;;3.30;1.00;;;;;;4974143;28;20121;-84
2022/04/05 03:14:45;;;;;;;22.63;15.63;;;3.40;1.00;;;;;;4973002;28;20485;-84
2022/04/05 03:17:12;;;;;;;20.50;15.30;;;3.50;1.00;;;;;;4973842;28;20031;-84
2022/04/05 03:19:37;;;;;;;23.23;16.00;;;3.60;1.00;;;;;;4973540;28;20038;-84
2022/04/05 03:22:05;;;;;;;22.40;15.90;;;3.60;1.00;;;;;;4974628;28;20475;-84
2022/04/05 03:24:31;;;;;;;25.38;17.33;;;3.90;1.00;;;;;;4973269;28;20038;-84
2022/04/05 03:26:57;;;;;;;27.38;18.08;;;3.90;1.00;;;;;;4973400;28;20110;-84
2022/04/05 03:29:23;;;;;;;23.75;17.05;;;3.80;1.00;;;;;;4972753;28;20480;-84
2022/04/05 03:31:49;;;;;;;23.65;16.65;;;3.70;1.00;;;;;;4973393;28;20058;-84
2022/04/05 03:34:15;;;;;;;23.08;16.15;;;3.70;1.00;;;;;;4973813;28;20023;-84
2022/04/05 03:36:43;;;;;;;23.90;17.05;;;3.70;1.00;;;;;;4973636;28;20050;-85
2022/04/05 03:39:10;;;;;;;21.13;16.05;;;3.80;1.00;;;;;;4955157;28;20118;-84
2022/04/05 03:41:36;;;;;;;23.25;16.73;;;4.00;1.00;;;;;;4973198;28;20464;-84
2022/04/05 03:44:02;;;;;;;25.15;16.42;;;3.60;1.00;;;;;;4973354;28;20400;-84
2022/04/05 03:46:28;;;;;;;22.00;16.20;;;3.60;1.00;;;;;;4972897;28;20031;-84
2022/04/05 03:48:54;;;;;;;22.38;16.38;;;3.70;1.00;;;;;;4973414;28;20035;-84
2022/04/05 03:51:20;;;;;;;20.23;16.00;;;3.70;1.00;;;;;;4972956;28;20157;-84
2022/04/05 03:53:46;;;;;;;20.48;14.93;;;3.60;1.00;;;;;;4973098;28;20030;-84
2022/04/05 03:56:11;;;;;;;21.20;16.00;;;3.40;1.00;;;;;;4972768;28;20054;-84
2022/04/05 03:58:37;;;;;;;21.98;15.93;;;3.50;1.00;;;;;;4972409;28;20053;-84
2022/04/05 04:01:02;;;;;;;21.35;16.77;;;3.60;1.00;;;;;;4973349;28;20035;-84
2022/04/05 04:03:28;;;;;;;21.45;15.90;;;3.40;1.00;;;;;;4973184;28;20103;-84
2022/04/05 04:05:54;;;;;;;21.48;16.02;;;3.40;1.00;;;;;;4972088;28;20045;-84
2022/04/05 04:08:19;;;;;;;21.30;15.18;;;3.50;1.00;;;;;;4972266;28;20431;-84
2022/04/05 04:10:48;;;;;;;22.83;16.55;;;3.40;1.00;;;;;;4972307;28;20549;-84
2022/04/05 04:13:14;;;;;;;23.25;15.85;;;3.40;1.00;;;;;;4968901;28;20135;-84
2022/04/05 04:15:40;;;;;;;21.90;16.40;;;3.40;1.00;;;;;;4972519;28;20035;-84
2022/04/05 04:18:06;;;;;;;21.35;15.70;;;3.40;1.00;;;;;;4972534;28;20407;-83
2022/04/05 04:20:31;;;;;;;21.08;16.08;;;3.20;1.00;;;;;;4972161;28;20026;-84
2022/04/05 04:22:57;;;;;;;20.40;16.10;;;3.20;1.00;;;;;;4972787;28;20054;-84
2022/04/05 04:25:22;;;;;;;22.67;16.92;;;3.20;1.00;;;;;;4972455;28;20479;-84
2022/04/05 04:27:48;;;;;;;23.70;17.02;;;3.20;1.00;;;;;;4971410;28;20038;-84
2022/04/05 04:30:14;;;;;;;22.60;16.77;;;3.20;1.00;;;;;;4972150;28;20057;-84
2022/04/05 04:32:39;;;;;;;22.48;15.98;;;3.30;1.00;;;;;;4972575;28;20066;-84
2022/04/05 04:35:07;;;;;;;22.40;17.10;;;3.30;1.00;;;;;;4972414;28;20387;-84
2022/04/05 04:37:33;;;;;;;22.90;17.15;;;3.40;1.00;;;;;;4971582;28;20063;-84
2022/04/05 04:39:59;;;;;;;24.77;16.95;;;3.60;1.00;;;;;;4973088;28;20376;-84
2022/04/05 04:42:25;;;;;;;22.77;17.13;;;3.70;1.00;;;;;;4972003;28;20483;-84
2022/04/05 04:44:51;;;;;;;22.38;16.92;;;3.80;1.00;;;;;;4971801;28;20034;-85
2022/04/05 04:47:17;;;;;;;23.95;16.83;;;4.10;1.00;;;;;;4971940;28;20023;-85
2022/04/05 04:49:43;;;;;;;21.38;15.57;;;4.00;1.00;;;;;;4971911;28;20109;-85
2022/04/05 04:52:10;;;;;;;20.55;15.65;;;4.00;1.00;;;;;;4973214;28;20031;-84
2022/04/05 04:54:36;;;;;;;21.25;15.35;;;4.10;1.00;;;;;;4972063;28;20034;-84
2022/04/05 04:57:01;;;;;;;25.42;16.17;;;3.70;1.00;;;;;;4970924;28;20507;-84
2022/04/05 04:59:27;;;;;;;26.88;17.02;;;3.90;1.00;;;;;;4971860;28;20034;-84
2022/04/05 05:01:53;;;;;;;25.50;15.80;;;3.90;1.00;;;;;;4972363;28;20026;-84
2022/04/05 05:04:19;;;;;;;20.80;15.10;;;3.90;1.00;;;;;;4972108;28;20069;-84
2022/04/05 05:06:44;;;;;;;23.10;15.50;;;3.80;1.00;;;;;;4972244;28;20039;-85
2022/04/05 05:09:10;;;;;;;21.38;15.23;;;3.60;1.00;;;;;;4971952;28;20027;-84
2022/04/05 05:11:36;;;;;;;21.27;16.05;;;3.40;1.00;;;;;;4971072;28;20082;-84
2022/04/05 05:14:02;;;;;;;21.52;15.75;;;3.50;1.00;;;;;;4954725;28;20015;-84
2022/04/05 05:16:28;;;;;;;22.75;16.20;;;3.50;1.00;;;;;;4971122;28;20026;-84
2022/04/05 05:18:53;;;;;;;22.38;16.75;;;3.40;1.00;;;;;;4972307;28;20027;-84
2022/04/05 05:21:19;;;;;;;23.10;16.73;;;3.40;1.00;;;;;;4974243;28;20062;-83
2022/04/05 05:23:45;;;;;;;25.42;16.95;;;3.50;1.00;;;;;;4975428;28;20454;-81
2022/04/05 05:26:11;;;;;;;29.10;17.63;;;3.40;1.00;;;;;;4975321;28;20046;-82
2022/04/05 05:28:37;;;;;;;25.83;17.08;;;3.60;1.00;;;;;;4975334;28;20074;-82
2022/04/05 05:31:02;;;;;;;23.67;16.88;;;3.70;1.00;;;;;;4976989;28;20430;-83
2022/04/05 05:33:28;;;;;;;23.92;17.50;;;3.80;1.00;;;;;;4975508;28;20085;-82
2022/04/05 05:35:54;;;;;;;25.25;17.52;;;3.70;1.00;;;;;;4975035;28;20023;-84
2022/04/05 05:38:20;;;;;;;23.35;16.58;;;3.70;1.00;;;;;;4957266;28;20073;-85
2022/04/05 05:40:45;;;;;;;25.05;16.52;;;3.30;1.00;;;;;;4958494;28;20483;-84
2022/04/05 05:43:11;;;;;;;21.48;15.93;;;3.50;1.00;;;;;;4975790;28;20101;-85
2022/04/05 05:45:37;;;;;;;24.85;16.83;;;4.00;1.00;;;;;;4975300;28;20045;-87
2022/04/05 05:48:04;;;;;;;28.65;17.30;;;3.70;1.00;;;;;;4975580;28;20038;-86
2022/04/05 05:50:30;;;;;;;25.08;17.52;;;3.70;1.00;;;;;;4974937;28;20385;-86
2022/04/05 05:52:56;;;;;;;27.13;17.35;;;3.80;1.00;;;;;;4975273;28;20041;-86
2022/04/05 05:55:23;;;;;;;25.38;17.58;;;4.00;1.00;;;;;;4975208;28;20030;-86
2022/04/05 05:57:48;;;;;;;23.05;17.60;;;4.00;1.00;;;;;;4975215;28;20468;-86
2022/04/05 06:00:20;;;;;;;28.13;17.75;;;3.90;1.00;;;;;;4974620;28;20103;-86
2022/04/05 06:02:47;;;;;;;26.10;18.75;;;4.00;1.00;;;;;;4974830;28;20070;-86
2022/04/05 06:05:13;;;;;;;28.92;19.13;;;4.20;1.00;;;;;;4974732;28;20085;-86
2022/04/05 06:07:39;;;;;;;26.02;18.85;;;4.10;1.00;;;;;;4974450;28;20443;-86
2022/04/05 06:10:06;;;;;;;23.13;18.13;;;4.10;1.00;;;;;;4975344;28;20071;-85
2022/04/05 06:12:32;;;;;;;26.73;18.88;;;4.10;1.00;;;;;;4974756;28;20042;-88
2022/04/05 06:14:58;;;;;;;29.52;19.55;;;4.20;1.00;;;;;;4975062;28;20114;-93
2022/04/05 06:17:24;;;;;;;25.67;19.08;;;4.20;1.00;;;;;;4976180;28;20054;-89
2022/04/05 06:19:53;;;;;;;29.98;19.80;;;4.30;1.00;;;;;;4975126;28;20063;-88
2022/04/05 06:22:19;;;;;;;27.73;19.10;;;4.30;1.00;;;;;;4956745;28;20376;-87
2022/04/05 06:24:46;;;;;;;26.38;19.73;;;4.30;1.00;;;;;;4975150;28;20029;-86
2022/04/05 06:27:12;;;;;;;27.40;19.13;;;4.20;1.00;;;;;;4974542;28;20072;-87
2022/04/05 06:29:38;;;;;;;30.60;20.05;;;4.30;1.00;;;;;;4974163;28;20467;-86
2022/04/05 06:32:04;;;;;;;28.60;20.75;;;4.30;1.00;;;;;;4973373;28;20113;-87
2022/04/05 06:34:30;;;;;;;25.73;19.55;;;4.30;1.00;;;;;;4974845;28;20054;-86
2022/04/05 06:36:55;;;;;;;27.17;18.88;;;4.40;1.00;;;;;;4974172;28;20070;-87
2022/04/05 06:39:21;;;;;;;25.75;19.40;;;4.50;1.00;;;;;;4974229;28;20499;-87
2022/04/05 06:41:47;;;;;;;24.63;18.38;;;4.60;1.00;;;;;;4974219;28;20134;-87
2022/04/05 06:44:12;;;;;;;27.50;18.92;;;4.50;1.00;;;;;;4974049;28;20097;-88
2022/04/05 06:46:38;;;;;;;26.00;19.90;;;4.40;1.00;;;;;;4974468;28;20034;-87
2022/04/05 06:49:04;;;;;;;33.83;20.50;;;4.70;1.00;;;;;;4974941;28;20059;-87
2022/04/05 06:51:30;;;;;;;33.30;22.00;;;4.40;1.00;;;;;;4973656;28;20039;-87
2022/04/05 06:53:57;;;;;;;31.23;21.98;;;4.40;1.00;;;;;;4974256;28;20114;-87
2022/04/05 06:56:25;;;;;;;32.72;22.08;;;4.50;1.00;;;;;;4973962;28;20037;-87
2022/04/05 06:58:51;;;;;;;34.08;22.58;;;4.70;1.00;;;;;;4974018;28;20033;-87
2022/04/05 07:01:17;;;;;;;32.55;21.42;;;4.60;1.00;;;;;;4975292;28;20034;-87
2022/04/05 07:03:43;;;;;;;31.35;21.73;;;4.70;1.00;;;;;;4973955;28;20054;-88
2022/04/05 07:06:08;;;;;;;29.25;20.55;;;4.80;1.00;;;;;;4973603;28;20066;-87
2022/04/05 07:08:34;;;;;;;27.25;20.33;;;5.20;1.00;;;;;;4973548;28;20026;-87
2022/04/05 07:11:00;;;;;;;27.17;19.95;;;5.10;1.00;;;;;;4974069;28;20041;-88
2022/04/05 07:13:25;;;;;;;28.15;19.60;;;5.20;1.00;;;;;;4973545;28;20077;-87
2022/04/05 07:15:51;;;;;;;28.88;20.55;;;5.20;1.00;;;;;;4974849;28;20039;-87
2022/04/05 07:18:17;;;;;;;28.58;18.75;;;5.30;1.00;;;;;;4973383;28;20023;-88
2022/04/05 07:20:43;;;;;;;31.08;20.85;;;5.40;1.00;;;;;;4973281;28;20035;-87
2022/04/05 07:23:08;;;;;;;24.70;18.88;;;5.50;1.00;;;;;;4956216;28;20027;-88
2022/04/05 07:25:35;;;;;;;25.95;19.70;;;5.60;1.00;;;;;;4973710;28;20037;-87
2022/04/05 07:28:02;;;;;;;26.55;19.10;;;5.90;1.00;;;;;;4974901;28;20026;-88
2022/04/05 07:30:28;;;;;;;28.75;19.38;;;5.80;1.00;;;;;;4973166;28;20034;-87
2022/04/05 07:32:54;;;;;;;23.50;17.23;;;6.10;1.00;;;;;;4973294;28;20407;-87
2022/04/05 07:35:20;;;;;;;24.45;17.30;;;6.20;1.00;;;;;;4972931;28;20030;-88
2022/04/05 07:37:47;;;;;;;21.10;17.27;;;6.60;1.00;;;;;;4958012;28;20588;-87
2022/04/05 07:40:13;;;;;;;24.15;18.38;;;6.50;1.00;;;;;;4974473;28;20041;-87
2022/04/05 07:42:41;;;;;;;23.92;17.77;;;6.70;1.00;;;;;;4973362;28;20030;-87
2022/04/05 07:45:08;;;;;;;26.17;17.85;;;6.70;1.00;;;;;;4973612;28;20031;-87
2022/04/05 07:47:34;;;;;;;21.63;17.35;;;7.10;1.00;;;;;;4972893;28;20027;-87
2022/04/05 07:49:59;;;;;;;25.65;17.55;;;7.20;1.00;;;;;;4972198;28;20459;-88
2022/04/05 07:52:26;;;;;;;22.88;17.98;;;7.30;1.00;;;;;;4955779;28;20042;-88
2022/04/05 07:54:52;;;;;;;22.88;17.73;;;7.50;1.00;;;;;;4973561;28;20035;-88
2022/04/05 07:57:17;;;;;;;23.88;17.23;;;7.50;1.00;;;;;;4973012;28;20046;-88
2022/04/05 07:59:43;;;;;;;22.67;18.35;;;7.70;1.00;;;;;;4972592;28;20110;-88
2022/04/05 08:02:09;;;;;;;25.27;18.55;;;7.80;1.00;;;;;;4972847;28;20058;-88
2022/04/05 08:04:35;;;;;;;24.13;18.42;;;8.00;1.00;;;;;;4972254;28;20479;-88
2022/04/05 08:07:01;;;;;;;26.80;18.35;;;8.10;1.00;;;;;;4973571;28;20093;-87
2022/04/05 08:09:27;;;;;;;26.42;18.90;;;8.20;1.00;;;;;;4972392;28;20463;-87
2022/04/05 08:11:52;;;;;;;29.85;18.60;;;8.20;1.00;;;;;;4972861;28;20062;-87
2022/04/05 08:14:18;;;;;;;27.92;18.38;;;8.00;1.00;;;;;;4972707;28;20120;-87
2022/04/05 08:16:44;;;;;;;25.15;18.70;;;8.10;1.00;;;;;;4972925;28;20106;-87
2022/04/05 08:19:09;;;;;;;23.83;18.85;;;8.10;1.00;;;;;;4972799;28;20034;-87
2022/04/05 08:21:36;;;;;;;24.45;19.27;;;8.10;1.00;;;;;;4972370;28;20030;-87
2022/04/05 08:24:02;;;;;;;25.17;18.17;;;8.20;1.00;;;;;;4972618;28;20031;-87
2022/04/05 08:26:27;;;;;;;23.90;17.80;;;8.20;1.00;;;;;;4972520;28;20026;-87
2022/04/05 08:28:55;;;;;;;23.98;18.00;;;8.10;1.00;;;;;;4972710;28;20029;-87
2022/04/05 08:31:21;;;;;;;24.17;17.98;;;8.40;1.00;;;;;;4972598;28;20042;-88
2022/04/05 08:33:46;;;;;;;24.98;17.95;;;8.50;1.00;;;;;;4973054;28;20027;-88
2022/04/05 08:36:12;;;;;;;22.10;16.35;;;8.50;1.00;;;;;;4971639;28;20031;-87
2022/04/05 08:38:39;;;;;;;19.65;15.50;;;8.50;1.00;;;;;;4972616;28;20037;-88
2022/04/05 08:41:07;;;;;;;20.48;15.68;;;8.70;1.00;;;;;;4972280;28;20022;-87
2022/04/05 08:43:36;;;;;;;18.23;14.90;;;8.60;1.00;;;;;;4972335;28;20035;-87
2022/04/05 08:46:05;;;;;;;19.65;15.38;;;8.80;1.00;;;;;;4973012;28;20081;-87
2022/04/05 08:48:31;;;;;;;19.00;14.57;;;9.10;1.00;;;;;;4971658;28;20038;-87
2022/04/05 08:50:58;;;;;;;20.42;15.05;;;9.50;1.00;;;;;;4972411;28;20031;-87
2022/04/05 08:53:24;;;;;;;18.15;12.50;;;9.60;1.00;;;;;;4972146;28;20026;-88
2022/04/05 08:55:51;;;;;;;17.30;12.15;;;9.60;1.00;;;;;;4976162;28;20074;-87
2022/04/05 08:58:17;;;;;;;14.13;11.80;;;9.50;1.00;;;;;;4979513;28;20050;-87
2022/04/05 09:00:43;;;;;;;17.38;13.10;;;9.70;1.00;;;;;;4979075;28;20031;-87
2022/04/05 09:03:09;;;;;;;17.65;14.02;;;9.80;1.00;;;;;;4978732;28;20097;-87
2022/04/05 09:05:37;;;;;;;17.05;12.52;;;9.80;1.00;;;;;;4978167;28;20490;-87
2022/04/05 09:08:29;;;;;;;19.42;14.75;;;10.00;1.00;;;;;;4978634;28;20035;-87
2022/04/05 09:11:12;;;;;;;18.98;14.50;;;10.20;1.00;;;;;;4964383;28;20041;-87
2022/04/05 09:13:38;;;;;;;19.10;15.13;;;10.30;1.00;;;;;;4978799;28;20510;-87
2022/04/05 09:16:05;;;;;;;17.05;13.80;;;10.40;1.00;;;;;;4978623;28;20110;-87
2022/04/05 09:18:44;;;;;;;16.10;13.70;;;10.40;1.00;;;;;;4978707;28;20074;-88
2022/04/05 09:21:11;;;;;;;18.98;14.50;;;10.40;1.00;;;;;;4978413;28;20042;-87
2022/04/05 09:23:41;;;;;;;16.17;13.45;;;10.30;1.00;;;;;;4978427;28;20479;-87
2022/04/05 09:26:12;;;;;;;17.02;13.90;;;10.20;1.00;;;;;;4978111;28;20410;-87
2022/04/05 09:28:41;;;;;;;19.83;15.38;;;10.10;1.00;;;;;;4978086;28;20034;-88
2022/04/05 09:31:10;;;;;;;17.95;14.13;;;10.10;1.00;;;;;;4961396;28;20443;-87
2022/04/05 09:33:38;;;;;;;15.57;12.75;;;10.00;1.00;;;;;;4978466;28;20027;-87
2022/04/05 09:36:07;;;;;;;17.33;14.45;;;9.90;1.00;;;;;;4978063;28;20458;-87
2022/04/05 09:38:34;;;;;;;17.50;12.77;;;10.00;1.00;;;;;;4961085;28;20347;-87
2022/04/05 09:41:10;;;;;;;18.80;12.77;;;10.10;1.00;;;;;;4978194;28;20031;-87
2022/04/05 09:43:36;;;;;;;16.45;13.43;;;10.20;1.00;;;;;;4978069;28;20030;-88
2022/04/05 09:46:04;;;;;;;15.95;13.10;;;10.40;1.00;;;;;;4978681;28;20050;-87
2022/04/05 09:48:36;;;;;;;16.38;12.82;;;10.30;1.00;;;;;;4978054;28;20019;-87
2022/04/05 09:51:16;;;;;;;18.67;13.35;;;10.60;1.00;;;;;;4977968;28;20422;-87
2022/04/05 09:53:43;;;;;;;14.98;12.85;;;10.80;1.00;;;;;;4977813;28;20086;-88
2022/04/05 09:56:14;;;;;;;15.93;13.60;;;11.20;1.00;;;;;;4977936;28;20038;-88
2022/04/05 09:58:45;;;;;;;15.00;12.63;;;12.70;1.00;;;;;;4978669;28;20023;-87
2022/04/05 10:01:11;;;;;;;13.90;12.32;;;14.00;1.00;;;;;;4978510;28;20475;-87
2022/04/05 10:03:42;;;;;;;14.77;13.27;;;14.50;1.00;;;;;;4977886;28;20031;-87
2022/04/05 10:06:08;;;;;;;17.35;14.23;;;15.00;1.00;;;;;;4976768;28;20027;-87
2022/04/05 10:08:35;;;;;;;15.30;12.93;;;15.60;1.00;;;;;;4974458;28;20030;-87
2022/04/05 10:11:02;;;;;;;13.68;12.27;;;16.00;1.00;;;;;;4975142;28;20093;-87
2022/04/05 10:13:28;;;;;;;12.80;11.48;;;15.80;1.00;;;;;;4975056;28;20074;-88
2022/04/05 10:15:55;;;;;;;12.93;11.55;;;16.30;1.00;;;;;;4974926;28;20030;-88
2022/04/05 10:18:21;;;;;;;12.07;10.85;;;16.70;1.00;;;;;;4974873;28;20027;-88
2022/04/05 10:20:49;;;;;;;11.88;10.00;;;17.00;1.00;;;;;;4974983;28;20034;-87
2022/04/05 10:23:20;;;;;;;10.00;9.00;;;17.20;1.00;;;;;;4974537;28;20050;-88
2022/04/05 10:25:51;;;;;;;11.77;9.80;;;17.40;1.00;;;;;;4959228;28;20104;-88
2022/04/05 10:28:22;;;;;;;8.82;7.93;;;17.40;1.00;;;;;;4970999;28;20104;-86
2022/04/05 10:30:54;;;;;;;12.18;10.15;;;17.60;1.00;;;;;;4975076;28;20031;-88
2022/04/05 10:33:38;;;;;;;7.97;6.15;;;17.60;1.00;;;;;;4974735;28;20117;-88
2022/04/05 10:36:04;;;;;;;9.30;8.13;;;18.40;1.00;;;;;;4974287;28;20097;-88
2022/04/05 10:38:30;;;;;;;9.90;8.90;;;18.50;1.00;;;;;;4974273;28;20090;-86
2022/04/05 10:41:20;;;;;;;8.70;7.63;;;18.20;1.00;;;;;;4974377;28;20042;-86
2022/04/05 10:44:22;;;;;;;7.40;6.70;;;19.10;1.00;;;;;;4974053;28;20019;-86
2022/04/05 10:46:58;;;;;;;8.73;7.90;;;20.10;1.00;;;;;;4959286;28;20015;-86
2022/04/05 10:49:35;;;;;;;8.05;7.25;;;19.90;1.00;;;;;;4971880;28;20031;-86
2022/04/05 10:52:17;;;;;;;10.18;9.25;;;20.00;1.00;;;;;;4973330;28;20030;-86
2022/04/05 10:54:47;;;;;;;7.18;6.47;;;19.90;1.00;;;;;;4974512;28;20488;-86
2022/04/05 10:57:30;;;;;;;11.27;9.35;;;20.30;1.00;;;;;;4974209;28;20118;-86
2022/04/05 11:00:11;;;;;;;6.45;5.85;;;20.00;1.00;;;;;;4974095;28;20065;-86
2022/04/05 11:02:43;;;;;;;9.68;8.77;;;20.50;1.00;;;;;;4973921;28;20027;-87
2022/04/05 11:05:16;;;;;;;7.88;7.18;;;21.40;1.00;;;;;;4973892;28;20049;-86
2022/04/05 11:07:59;;;;;;;21.27;19.05;;;21.60;1.00;;;;;;4974104;28;20058;-86
2022/04/05 11:10:44;;;;;;;7.25;6.53;;;21.30;1.00;;;;;;4971024;28;20093;-86
2022/04/05 11:13:38;;;;;;;12.45;11.25;;;21.50;1.00;;;;;;4973354;28;20030;-86
2022/04/05 11:16:07;;;;;;;10.45;8.30;;;21.00;1.00;;;;;;4962059;28;20035;-86
2022/04/05 11:18:34;;;;;;;8.32;7.43;;;21.00;1.00;;;;;;4973666;28;20027;-86
2022/04/05 11:21:00;;;;;;;10.45;9.40;;;21.90;1.00;;;;;;4973464;28;20046;-86
2022/04/05 11:23:41;;;;;;;11.32;8.68;;;21.90;1.00;;;;;;4973445;28;20383;-86
2022/04/05 11:26:24;;;;;;;9.40;8.52;;;22.80;1.00;;;;;;4973516;28;20027;-86
2022/04/05 11:28:50;;;;;;;9.07;8.20;;;23.00;1.00;;;;;;4958329;28;20080;-86
2022/04/05 11:31:37;;;;;;;9.32;8.43;;;23.40;1.00;;;;;;4974676;28;20193;-88
2022/04/05 11:34:37;;;;;;;11.07;8.73;;;24.10;1.00;;;;;;4972946;28;20035;-87
2022/04/05 11:37:04;;;;;;;10.95;9.95;;;25.20;1.00;;;;;;4972187;28;20058;-87
2022/04/05 11:39:35;;;;;;;10.18;9.05;;;24.70;1.00;;;;;;4973428;28;20110;-87
2022/04/05 11:42:01;;;;;;;23.05;20.90;;;24.90;1.00;;;;;;4973043;28;20105;-88
2022/04/05 11:44:27;;;;;;;10.02;8.98;;;25.10;1.00;;;;;;4973104;28;20069;-88
2022/04/05 11:46:58;;;;;;;10.23;9.23;;;26.00;1.00;;;;;;4973211;28;20062;-88
2022/04/05 11:49:24;;;;;;;9.77;8.88;;;26.70;1.00;;;;;;4973360;28;20062;-88
2022/04/05 11:51:51;;;;;;;9.65;7.95;;;26.70;1.00;;;;;;4974184;28;20058;-89
2022/04/05 11:54:21;;;;;;;9.32;8.43;;;26.30;1.00;;;;;;4973257;28;20046;-88
2022/04/05 11:56:47;;;;;;;10.32;8.93;;;26.40;1.00;;;;;;4972735;28;20064;-88
2022/04/05 11:59:18;;;;;;;10.65;9.68;;;26.00;1.00;;;;;;4972996;28;20109;-88
2022/04/05 12:01:49;;;;;;;25.20;22.83;;;25.20;1.00;;;;;;4973208;28;20042;-88
2022/04/05 12:04:17;;;;;;;9.90;8.98;;;25.00;1.00;;;;;;4969688;28;20026;-88
2022/04/05 12:06:49;;;;;;;9.50;8.60;;;25.40;1.00;;;;;;4973311;28;20035;-88
2022/04/05 12:09:18;;;;;;;9.43;8.52;;;26.10;1.00;;;;;;4972468;28;20038;-88
2022/04/05 12:11:50;;;;;;;9.00;8.10;;;26.10;1.00;;;;;;4972683;28;20023;-88
2022/04/05 12:14:18;;;;;;;7.97;7.35;;;25.70;1.00;;;;;;4972860;28;20117;-89
2022/04/05 12:17:02;;;;;;;10.02;8.98;;;25.80;1.00;;;;;;4972849;28;20134;-88
2022/04/05 12:19:29;;;;;;;11.05;10.05;;;25.80;1.00;;;;;;4970357;28;20063;-88
2022/04/05 12:21:57;;;;;;;8.80;7.95;;;26.30;1.00;;;;;;4973778;28;20057;-88
2022/04/05 12:24:23;;;;;;;9.85;9.05;;;26.70;1.00;;;;;;4971951;28;20080;-87
2022/04/05 12:26:49;;;;;;;11.45;10.45;;;26.30;1.00;;;;;;4972353;28;20066;-88
2022/04/05 12:29:15;;;;;;;9.73;8.90;;;26.10;1.00;;;;;;4972119;28;20379;-88
2022/04/05 12:31:41;;;;;;;16.38;14.65;;;26.90;1.00;;;;;;4972569;28;20067;-88
2022/04/05 12:34:13;;;;;;;11.52;10.30;;;25.40;1.00;;;;;;4955694;28;20516;-88
2022/04/05 12:36:40;;;;;;;9.13;8.32;;;25.40;1.00;;;;;;4972379;28;20399;-88
2022/04/05 12:39:15;;;;;;;10.77;9.73;;;26.30;1.00;;;;;;4972003;28;20043;-88
2022/04/05 12:41:41;;;;;;;9.82;9.02;;;26.80;1.00;;;;;;4972445;28;20026;-88
2022/04/05 12:44:09;;;;;;;10.00;9.13;;;26.60;1.00;;;;;;4955495;28;20526;-89
2022/04/05 12:46:37;;;;;;;10.23;9.25;;;27.00;1.00;;;;;;4972233;28;20058;-88
2022/04/05 12:49:26;;;;;;;10.63;9.63;;;26.50;1.00;;;;;;4972535;28;20038;-88